sensor_id;sensor_type;location;lat;lon;timestamp;temperature;humidity
7445;DHT22;3764;48.126;11.594;2022-07-29T00:01:48;20.60;99.90
7445;DHT22;3764;48.126;11.594;2022-07-29T00:04:17;20.60;99.90
7445;DHT22;3764;48.126;11.594;2022-07-29T00:06:46;20.60;99.90
7445;DHT22;3764;48.126;11.594;2022-07-29T00:09:13;20.60;99.90
7445;DHT22;3764;48.126;11.594;2022-07-29T00:11:40;20.60;99.90
7445;DHT22;3764;48.126;11.594;2022-07-29T00:14:08;20.60;99.90
7445;DHT22;3764;48.126;11.594;2022-07-29T00:16:35;20.60;99.90
7445;DHT22;3764;48.126;11.594;2022-07-29T00:19:02;20.60;99.90
7445;DHT22;3764;48.126;11.594;2022-07-29T00:21:29;20.50;99.90
7445;DHT22;3764;48.126;11.594;2022-07-29T00:23:58;20.50;99.90
7445;DHT22;3764;48.126;11.594;2022-07-29T00:26:25;20.50;99.90
7445;DHT22;3764;48.126;11.594;2022-07-29T00:28:57;20.40;99.90
7445;DHT22;3764;48.126;11.594;2022-07-29T00:31:24;20.40;99.90
7445;DHT22;3764;48.126;11.594;2022-07-29T00:33:51;20.40;99.90
7445;DHT22;3764;48.126;11.594;2022-07-29T00:36:18;20.50;99.90
7445;DHT22;3764;48.126;11.594;2022-07-29T00:38:46;20.50;99.90
7445;DHT22;3764;48.126;11.594;2022-07-29T00:41:15;20.50;99.90
7445;DHT22;3764;48.126;11.594;2022-07-29T00:43:42;20.50;99.90
7445;DHT22;3764;48.126;11.594;2022-07-29T00:46:09;20.50;99.90
7445;DHT22;3764;48.126;11.594;2022-07-29T00:48:36;20.50;99.90
7445;DHT22;3764;48.126;11.594;2022-07-29T00:51:05;20.50;99.90
7445;DHT22;3764;48.126;11.594;2022-07-29T00:53:34;20.50;99.90
7445;DHT22;3764;48.126;11.594;2022-07-29T00:56:02;20.50;99.90
7445;DHT22;3764;48.126;11.594;2022-07-29T00:58:31;20.60;99.90
7445;DHT22;3764;48.126;11.594;2022-07-29T01:01:01;20.60;99.90
7445;DHT22;3764;48.126;11.594;2022-07-29T01:03:28;20.70;99.90
7445;DHT22;3764;48.126;11.594;2022-07-29T01:05:55;20.70;99.90
7445;DHT22;3764;48.126;11.594;2022-07-29T01:08:23;20.70;99.90
7445;DHT22;3764;48.126;11.594;2022-07-29T01:10:51;20.80;99.90
7445;DHT22;3764;48.126;11.594;2022-07-29T01:13:19;20.70;99.90
7445;DHT22;3764;48.126;11.594;2022-07-29T01:15:58;20.80;99.90
7445;DHT22;3764;48.126;11.594;2022-07-29T01:18:31;20.70;99.90
7445;DHT22;3764;48.126;11.594;2022-07-29T01:21:14;20.70;99.90
7445;DHT22;3764;48.126;11.594;2022-07-29T01:23:55;20.70;99.90
7445;DHT22;3764;48.126;11.594;2022-07-29T01:26:35;20.70;99.90
7445;DHT22;3764;48.126;11.594;2022-07-29T01:29:12;20.70;99.90
7445;DHT22;3764;48.126;11.594;2022-07-29T01:31:45;20.60;99.90
7445;DHT22;3764;48.126;11.594;2022-07-29T01:34:20;20.60;99.90
7445;DHT22;3764;48.126;11.594;2022-07-29T01:36:51;20.60;99.90
7445;DHT22;3764;48.126;11.594;2022-07-29T01:39:25;20.60;99.90
7445;DHT22;3764;48.126;11.594;2022-07-29T01:42:10;20.60;99.90
7445;DHT22;3764;48.126;11.594;2022-07-29T01:44:46;20.60;99.90
7445;DHT22;3764;48.126;11.594;2022-07-29T01:47:19;20.70;99.90
7445;DHT22;3764;48.126;11.594;2022-07-29T01:49:49;20.70;99.90
7445;DHT22;3764;48.126;11.594;2022-07-29T01:52:21;20.70;99.90
7445;DHT22;3764;48.126;11.594;2022-07-29T01:54:55;20.70;99.90
7445;DHT22;3764;48.126;11.594;2022-07-29T01:57:31;20.60;99.90
7445;DHT22;3764;48.126;11.594;2022-07-29T02:00:02;20.60;99.90
7445;DHT22;3764;48.126;11.594;2022-07-29T02:02:30;20.60;99.90
7445;DHT22;3764;48.126;11.594;2022-07-29T02:04:59;20.60;99.90
7445;DHT22;3764;48.126;11.594;2022-07-29T02:07:29;20.60;99.90
7445;DHT22;3764;48.126;11.594;2022-07-29T02:10:00;20.60;99.90
7445;DHT22;3764;48.126;11.594;2022-07-29T02:12:29;20.60;99.90
7445;DHT22;3764;48.126;11.594;2022-07-29T02:15:03;20.60;99.90
7445;DHT22;3764;48.126;11.594;2022-07-29T02:17:34;20.60;99.90
7445;DHT22;3764;48.126;11.594;2022-07-29T02:20:04;20.70;99.90
7445;DHT22;3764;48.126;11.594;2022-07-29T02:22:36;20.60;99.90
7445;DHT22;3764;48.126;11.594;2022-07-29T02:25:05;20.60;99.90
7445;DHT22;3764;48.126;11.594;2022-07-29T02:27:34;20.60;99.90
7445;DHT22;3764;48.126;11.594;2022-07-29T02:30:04;20.60;99.90
7445;DHT22;3764;48.126;11.594;2022-07-29T02:32:35;20.60;99.90
7445;DHT22;3764;48.126;11.594;2022-07-29T02:35:05;20.70;99.90
7445;DHT22;3764;48.126;11.594;2022-07-29T02:37:32;20.70;99.90
7445;DHT22;3764;48.126;11.594;2022-07-29T02:40:00;20.70;99.90
7445;DHT22;3764;48.126;11.594;2022-07-29T02:42:28;20.80;99.90
7445;DHT22;3764;48.126;11.594;2022-07-29T02:44:56;20.80;99.90
7445;DHT22;3764;48.126;11.594;2022-07-29T02:47:31;20.90;99.90
7445;DHT22;3764;48.126;11.594;2022-07-29T02:50:02;20.80;99.90
7445;DHT22;3764;48.126;11.594;2022-07-29T02:52:37;20.80;99.90
7445;DHT22;3764;48.126;11.594;2022-07-29T02:55:13;20.80;99.90
7445;DHT22;3764;48.126;11.594;2022-07-29T02:57:43;20.70;99.90
7445;DHT22;3764;48.126;11.594;2022-07-29T03:00:12;20.70;99.90
7445;DHT22;3764;48.126;11.594;2022-07-29T03:02:44;20.60;99.90
7445;DHT22;3764;48.126;11.594;2022-07-29T03:05:16;20.50;99.90
7445;DHT22;3764;48.126;11.594;2022-07-29T03:07:48;20.50;99.90
7445;DHT22;3764;48.126;11.594;2022-07-29T03:10:16;20.50;99.90
7445;DHT22;3764;48.126;11.594;2022-07-29T03:12:44;20.60;99.90
7445;DHT22;3764;48.126;11.594;2022-07-29T03:15:11;20.60;99.90
7445;DHT22;3764;48.126;11.594;2022-07-29T03:17:40;20.70;99.90
7445;DHT22;3764;48.126;11.594;2022-07-29T03:20:09;20.70;99.90
7445;DHT22;3764;48.126;11.594;2022-07-29T03:22:39;20.70;99.90
7445;DHT22;3764;48.126;11.594;2022-07-29T03:25:09;20.70;99.90
7445;DHT22;3764;48.126;11.594;2022-07-29T03:27:36;20.70;99.90
7445;DHT22;3764;48.126;11.594;2022-07-29T03:30:04;20.70;99.90
7445;DHT22;3764;48.126;11.594;2022-07-29T03:32:32;20.70;99.90
7445;DHT22;3764;48.126;11.594;2022-07-29T03:35:00;20.70;99.90
7445;DHT22;3764;48.126;11.594;2022-07-29T03:37:27;20.60;99.90
7445;DHT22;3764;48.126;11.594;2022-07-29T03:39:57;20.50;99.90
7445;DHT22;3764;48.126;11.594;2022-07-29T03:42:30;20.50;99.90
7445;DHT22;3764;48.126;11.594;2022-07-29T03:44:59;20.50;99.90
7445;DHT22;3764;48.126;11.594;2022-07-29T03:47:29;20.50;99.90
7445;DHT22;3764;48.126;11.594;2022-07-29T03:50:02;20.60;99.90
7445;DHT22;3764;48.126;11.594;2022-07-29T03:52:29;20.50;99.90
7445;DHT22;3764;48.126;11.594;2022-07-29T03:54:57;20.60;99.90
7445;DHT22;3764;48.126;11.594;2022-07-29T03:57:27;20.50;99.90
7445;DHT22;3764;48.126;11.594;2022-07-29T03:59:55;20.50;99.90
7445;DHT22;3764;48.126;11.594;2022-07-29T04:02:22;20.50;99.90
7445;DHT22;3764;48.126;11.594;2022-07-29T04:04:50;20.50;99.90
7445;DHT22;3764;48.126;11.594;2022-07-29T04:07:19;20.50;99.90
7445;DHT22;3764;48.126;11.594;2022-07-29T04:09:46;20.50;99.90
7445;DHT22;3764;48.126;11.594;2022-07-29T04:12:13;20.50;99.90
7445;DHT22;3764;48.126;11.594;2022-07-29T04:14:40;20.40;99.90
7445;DHT22;3764;48.126;11.594;2022-07-29T04:17:07;20.40;99.90
7445;DHT22;3764;48.126;11.594;2022-07-29T04:19:34;20.40;99.90
7445;DHT22;3764;48.126;11.594;2022-07-29T04:22:01;20.40;99.90
7445;DHT22;3764;48.126;11.594;2022-07-29T04:24:30;20.40;99.90
7445;DHT22;3764;48.126;11.594;2022-07-29T04:26:57;20.40;99.90
7445;DHT22;3764;48.126;11.594;2022-07-29T04:29:24;20.40;99.90
7445;DHT22;3764;48.126;11.594;2022-07-29T04:31:51;20.40;99.90
7445;DHT22;3764;48.126;11.594;2022-07-29T04:34:18;20.40;99.90
7445;DHT22;3764;48.126;11.594;2022-07-29T04:36:45;20.40;99.90
7445;DHT22;3764;48.126;11.594;2022-07-29T04:39:12;20.40;99.90
7445;DHT22;3764;48.126;11.594;2022-07-29T04:41:41;20.40;99.90
7445;DHT22;3764;48.126;11.594;2022-07-29T04:44:08;20.40;99.90
7445;DHT22;3764;48.126;11.594;2022-07-29T04:46:36;20.40;99.90
7445;DHT22;3764;48.126;11.594;2022-07-29T04:49:03;20.50;99.90
7445;DHT22;3764;48.126;11.594;2022-07-29T04:51:30;20.50;99.90
7445;DHT22;3764;48.126;11.594;2022-07-29T04:53:57;20.50;99.90
7445;DHT22;3764;48.126;11.594;2022-07-29T04:56:24;20.50;99.90
7445;DHT22;3764;48.126;11.594;2022-07-29T04:58:53;20.50;99.90
7445;DHT22;3764;48.126;11.594;2022-07-29T05:01:20;20.60;99.90
7445;DHT22;3764;48.126;11.594;2022-07-29T05:03:47;20.60;99.90
7445;DHT22;3764;48.126;11.594;2022-07-29T05:06:14;20.50;99.90
7445;DHT22;3764;48.126;11.594;2022-07-29T05:08:41;20.60;99.90
7445;DHT22;3764;48.126;11.594;2022-07-29T05:11:08;20.50;99.90
7445;DHT22;3764;48.126;11.594;2022-07-29T05:13:36;20.50;99.90
7445;DHT22;3764;48.126;11.594;2022-07-29T05:16:05;20.50;99.90
7445;DHT22;3764;48.126;11.594;2022-07-29T05:18:32;20.50;99.90
7445;DHT22;3764;48.126;11.594;2022-07-29T05:20:59;20.50;99.90
7445;DHT22;3764;48.126;11.594;2022-07-29T05:23:26;20.50;99.90
7445;DHT22;3764;48.126;11.594;2022-07-29T05:25:53;20.50;99.90
7445;DHT22;3764;48.126;11.594;2022-07-29T05:28:20;20.60;99.90
7445;DHT22;3764;48.126;11.594;2022-07-29T05:30:47;20.60;99.90
7445;DHT22;3764;48.126;11.594;2022-07-29T05:33:16;20.60;99.90
7445;DHT22;3764;48.126;11.594;2022-07-29T05:35:43;20.60;99.90
7445;DHT22;3764;48.126;11.594;2022-07-29T05:38:10;20.50;99.90
7445;DHT22;3764;48.126;11.594;2022-07-29T05:40:37;20.50;99.90
7445;DHT22;3764;48.126;11.594;2022-07-29T05:43:04;20.50;99.90
7445;DHT22;3764;48.126;11.594;2022-07-29T05:45:31;20.40;99.90
7445;DHT22;3764;48.126;11.594;2022-07-29T05:47:58;20.40;99.90
7445;DHT22;3764;48.126;11.594;2022-07-29T05:50:27;20.30;99.90
7445;DHT22;3764;48.126;11.594;2022-07-29T05:52:54;20.40;99.90
7445;DHT22;3764;48.126;11.594;2022-07-29T05:55:21;20.30;99.90
7445;DHT22;3764;48.126;11.594;2022-07-29T05:57:48;20.30;99.90
7445;DHT22;3764;48.126;11.594;2022-07-29T06:00:16;20.30;99.90
7445;DHT22;3764;48.126;11.594;2022-07-29T06:02:43;20.30;99.90
7445;DHT22;3764;48.126;11.594;2022-07-29T06:05:10;20.30;99.90
7445;DHT22;3764;48.126;11.594;2022-07-29T06:07:39;20.30;99.90
7445;DHT22;3764;48.126;11.594;2022-07-29T06:10:06;20.30;99.90
7445;DHT22;3764;48.126;11.594;2022-07-29T06:12:34;20.30;99.90
7445;DHT22;3764;48.126;11.594;2022-07-29T06:15:02;20.30;99.90
7445;DHT22;3764;48.126;11.594;2022-07-29T06:17:29;20.40;99.90
7445;DHT22;3764;48.126;11.594;2022-07-29T06:19:56;20.40;99.90
7445;DHT22;3764;48.126;11.594;2022-07-29T06:22:23;20.40;99.90
7445;DHT22;3764;48.126;11.594;2022-07-29T06:24:51;20.40;99.90
7445;DHT22;3764;48.126;11.594;2022-07-29T06:27:19;20.40;99.90
7445;DHT22;3764;48.126;11.594;2022-07-29T06:29:46;20.40;99.90
7445;DHT22;3764;48.126;11.594;2022-07-29T06:32:13;20.50;99.90
7445;DHT22;3764;48.126;11.594;2022-07-29T06:34:40;20.50;99.90
7445;DHT22;3764;48.126;11.594;2022-07-29T06:37:08;20.60;99.90
7445;DHT22;3764;48.126;11.594;2022-07-29T06:39:35;20.60;99.90
7445;DHT22;3764;48.126;11.594;2022-07-29T06:42:04;20.70;99.90
7445;DHT22;3764;48.126;11.594;2022-07-29T06:44:31;20.70;99.90
7445;DHT22;3764;48.126;11.594;2022-07-29T06:47:00;20.80;99.90
7445;DHT22;3764;48.126;11.594;2022-07-29T06:49:27;20.70;99.90
7445;DHT22;3764;48.126;11.594;2022-07-29T06:51:54;20.80;99.90
7445;DHT22;3764;48.126;11.594;2022-07-29T06:54:22;20.80;99.90
7445;DHT22;3764;48.126;11.594;2022-07-29T06:56:49;20.80;99.90
7445;DHT22;3764;48.126;11.594;2022-07-29T06:59:17;20.80;99.90
7445;DHT22;3764;48.126;11.594;2022-07-29T07:01:44;20.90;99.90
7445;DHT22;3764;48.126;11.594;2022-07-29T07:04:12;20.90;99.90
7445;DHT22;3764;48.126;11.594;2022-07-29T07:06:39;21.00;99.90
7445;DHT22;3764;48.126;11.594;2022-07-29T07:09:06;21.00;99.90
7445;DHT22;3764;48.126;11.594;2022-07-29T07:11:33;21.00;99.90
7445;DHT22;3764;48.126;11.594;2022-07-29T07:14:00;21.10;99.90
7445;DHT22;3764;48.126;11.594;2022-07-29T07:16:29;21.10;99.90
7445;DHT22;3764;48.126;11.594;2022-07-29T07:18:56;21.10;99.90
7445;DHT22;3764;48.126;11.594;2022-07-29T07:21:23;21.20;99.90
7445;DHT22;3764;48.126;11.594;2022-07-29T07:23:50;21.20;99.90
7445;DHT22;3764;48.126;11.594;2022-07-29T07:26:18;21.20;99.90
7445;DHT22;3764;48.126;11.594;2022-07-29T07:28:45;21.20;99.90
7445;DHT22;3764;48.126;11.594;2022-07-29T07:31:12;21.30;99.90
7445;DHT22;3764;48.126;11.594;2022-07-29T07:33:41;21.30;99.90
7445;DHT22;3764;48.126;11.594;2022-07-29T07:36:08;21.30;99.90
7445;DHT22;3764;48.126;11.594;2022-07-29T07:38:35;21.40;99.90
7445;DHT22;3764;48.126;11.594;2022-07-29T07:41:02;21.40;99.90
7445;DHT22;3764;48.126;11.594;2022-07-29T07:43:29;21.50;99.90
7445;DHT22;3764;48.126;11.594;2022-07-29T07:45:57;21.50;99.90
7445;DHT22;3764;48.126;11.594;2022-07-29T07:48:24;21.60;99.90
7445;DHT22;3764;48.126;11.594;2022-07-29T07:50:52;21.60;99.90
7445;DHT22;3764;48.126;11.594;2022-07-29T07:53:19;21.70;99.90
7445;DHT22;3764;48.126;11.594;2022-07-29T07:55:47;21.70;99.90
7445;DHT22;3764;48.126;11.594;2022-07-29T07:58:14;21.80;99.90
7445;DHT22;3764;48.126;11.594;2022-07-29T08:00:41;21.80;99.90
7445;DHT22;3764;48.126;11.594;2022-07-29T08:03:08;21.90;99.90
7445;DHT22;3764;48.126;11.594;2022-07-29T08:05:38;21.90;99.90
7445;DHT22;3764;48.126;11.594;2022-07-29T08:08:07;21.90;99.90
7445;DHT22;3764;48.126;11.594;2022-07-29T08:10:34;22.00;99.90
7445;DHT22;3764;48.126;11.594;2022-07-29T08:13:23;22.00;99.90
7445;DHT22;3764;48.126;11.594;2022-07-29T08:15:51;22.10;99.90
7445;DHT22;3764;48.126;11.594;2022-07-29T08:18:23;22.20;99.90
7445;DHT22;3764;48.126;11.594;2022-07-29T08:20:50;22.20;99.90
7445;DHT22;3764;48.126;11.594;2022-07-29T08:23:19;22.30;99.90
7445;DHT22;3764;48.126;11.594;2022-07-29T08:25:46;22.30;99.90
7445;DHT22;3764;48.126;11.594;2022-07-29T08:28:13;22.40;99.90
7445;DHT22;3764;48.126;11.594;2022-07-29T08:30:40;22.40;99.90
7445;DHT22;3764;48.126;11.594;2022-07-29T08:33:07;22.50;99.90
7445;DHT22;3764;48.126;11.594;2022-07-29T08:35:34;22.50;99.90
7445;DHT22;3764;48.126;11.594;2022-07-29T08:38:02;22.50;99.90
7445;DHT22;3764;48.126;11.594;2022-07-29T08:40:30;22.50;99.90
7445;DHT22;3764;48.126;11.594;2022-07-29T08:42:58;22.60;99.90
7445;DHT22;3764;48.126;11.594;2022-07-29T08:45:26;22.60;99.90
7445;DHT22;3764;48.126;11.594;2022-07-29T08:47:55;22.70;99.90
7445;DHT22;3764;48.126;11.594;2022-07-29T08:50:23;22.70;99.90
7445;DHT22;3764;48.126;11.594;2022-07-29T08:52:51;22.80;99.90
7445;DHT22;3764;48.126;11.594;2022-07-29T08:55:18;22.80;99.90
7445;DHT22;3764;48.126;11.594;2022-07-29T08:57:48;22.90;99.90
7445;DHT22;3764;48.126;11.594;2022-07-29T09:00:15;23.00;99.90
7445;DHT22;3764;48.126;11.594;2022-07-29T09:02:45;23.00;99.90
7445;DHT22;3764;48.126;11.594;2022-07-29T09:05:14;23.00;99.90
7445;DHT22;3764;48.126;11.594;2022-07-29T09:07:42;23.00;99.90
7445;DHT22;3764;48.126;11.594;2022-07-29T09:10:10;23.00;99.90
7445;DHT22;3764;48.126;11.594;2022-07-29T09:12:37;23.10;99.90
7445;DHT22;3764;48.126;11.594;2022-07-29T09:15:07;23.10;99.90
7445;DHT22;3764;48.126;11.594;2022-07-29T09:17:43;23.10;99.90
7445;DHT22;3764;48.126;11.594;2022-07-29T09:20:12;23.10;99.90
7445;DHT22;3764;48.126;11.594;2022-07-29T09:22:40;23.10;99.90
7445;DHT22;3764;48.126;11.594;2022-07-29T09:25:06;23.10;99.90
7445;DHT22;3764;48.126;11.594;2022-07-29T09:27:34;23.20;99.90
7445;DHT22;3764;48.126;11.594;2022-07-29T09:30:03;23.30;99.90
7445;DHT22;3764;48.126;11.594;2022-07-29T09:32:33;23.40;99.90
7445;DHT22;3764;48.126;11.594;2022-07-29T09:35:17;23.40;99.90
7445;DHT22;3764;48.126;11.594;2022-07-29T09:37:45;23.50;99.90
7445;DHT22;3764;48.126;11.594;2022-07-29T09:40:14;23.50;99.90
7445;DHT22;3764;48.126;11.594;2022-07-29T09:42:43;23.50;99.90
7445;DHT22;3764;48.126;11.594;2022-07-29T09:45:10;23.60;99.90
7445;DHT22;3764;48.126;11.594;2022-07-29T09:47:45;23.70;99.90
7445;DHT22;3764;48.126;11.594;2022-07-29T09:50:14;23.70;99.90
7445;DHT22;3764;48.126;11.594;2022-07-29T09:52:47;23.80;99.90
7445;DHT22;3764;48.126;11.594;2022-07-29T09:55:15;23.80;99.90
7445;DHT22;3764;48.126;11.594;2022-07-29T09:57:42;23.80;99.90
7445;DHT22;3764;48.126;11.594;2022-07-29T10:00:11;23.80;99.90
7445;DHT22;3764;48.126;11.594;2022-07-29T10:02:40;23.80;99.90
7445;DHT22;3764;48.126;11.594;2022-07-29T10:05:19;23.80;99.90
7445;DHT22;3764;48.126;11.594;2022-07-29T10:07:48;23.70;99.90
7445;DHT22;3764;48.126;11.594;2022-07-29T10:10:20;23.70;99.90
7445;DHT22;3764;48.126;11.594;2022-07-29T10:12:50;23.70;99.90
7445;DHT22;3764;48.126;11.594;2022-07-29T10:15:18;23.70;99.90
7445;DHT22;3764;48.126;11.594;2022-07-29T10:17:45;23.70;99.90
7445;DHT22;3764;48.126;11.594;2022-07-29T10:20:13;23.80;99.90
7445;DHT22;3764;48.126;11.594;2022-07-29T10:22:42;23.80;99.90
7445;DHT22;3764;48.126;11.594;2022-07-29T10:25:10;23.80;99.90
7445;DHT22;3764;48.126;11.594;2022-07-29T10:27:37;23.80;99.90
7445;DHT22;3764;48.126;11.594;2022-07-29T10:30:05;23.80;99.90
7445;DHT22;3764;48.126;11.594;2022-07-29T10:32:51;23.70;99.90
7445;DHT22;3764;48.126;11.594;2022-07-29T10:35:31;23.70;99.90
7445;DHT22;3764;48.126;11.594;2022-07-29T10:38:25;23.80;99.90
7445;DHT22;3764;48.126;11.594;2022-07-29T10:41:00;23.70;99.90
7445;DHT22;3764;48.126;11.594;2022-07-29T10:43:48;23.80;99.90
7445;DHT22;3764;48.126;11.594;2022-07-29T10:46:15;23.80;99.90
7445;DHT22;3764;48.126;11.594;2022-07-29T10:49:09;23.80;99.90
7445;DHT22;3764;48.126;11.594;2022-07-29T10:52:01;23.70;99.90
7445;DHT22;3764;48.126;11.594;2022-07-29T10:54:45;23.70;99.90
7445;DHT22;3764;48.126;11.594;2022-07-29T10:57:18;23.70;99.90
7445;DHT22;3764;48.126;11.594;2022-07-29T10:59:47;23.70;99.90
7445;DHT22;3764;48.126;11.594;2022-07-29T11:02:45;23.70;99.90
7445;DHT22;3764;48.126;11.594;2022-07-29T11:05:18;23.70;99.90
7445;DHT22;3764;48.126;11.594;2022-07-29T11:08:19;23.80;99.90
7445;DHT22;3764;48.126;11.594;2022-07-29T11:10:52;23.80;99.90
7445;DHT22;3764;48.126;11.594;2022-07-29T11:13:48;23.80;99.90
7445;DHT22;3764;48.126;11.594;2022-07-29T11:16:16;23.90;99.90
7445;DHT22;3764;48.126;11.594;2022-07-29T11:21:50;24.00;99.90
7445;DHT22;3764;48.126;11.594;2022-07-29T11:24:20;24.10;99.90
7445;DHT22;3764;48.126;11.594;2022-07-29T11:27:16;24.20;99.90
7445;DHT22;3764;48.126;11.594;2022-07-29T11:29:54;24.30;99.90
7445;DHT22;3764;48.126;11.594;2022-07-29T11:32:23;24.40;99.90
7445;DHT22;3764;48.126;11.594;2022-07-29T11:35:14;24.50;99.90
7445;DHT22;3764;48.126;11.594;2022-07-29T11:37:41;24.60;99.90
7445;DHT22;3764;48.126;11.594;2022-07-29T11:40:11;24.70;99.90
7445;DHT22;3764;48.126;11.594;2022-07-29T11:42:49;24.80;99.90
7445;DHT22;3764;48.126;11.594;2022-07-29T11:45:24;24.80;99.90
7445;DHT22;3764;48.126;11.594;2022-07-29T11:47:58;24.80;99.90
7445;DHT22;3764;48.126;11.594;2022-07-29T11:50:32;24.80;99.90
7445;DHT22;3764;48.126;11.594;2022-07-29T11:53:02;24.90;99.90
7445;DHT22;3764;48.126;11.594;2022-07-29T11:55:30;24.80;99.90
7445;DHT22;3764;48.126;11.594;2022-07-29T11:58:02;24.90;99.90
7445;DHT22;3764;48.126;11.594;2022-07-29T12:00:31;24.90;99.90
7445;DHT22;3764;48.126;11.594;2022-07-29T12:03:01;24.90;99.90
7445;DHT22;3764;48.126;11.594;2022-07-29T12:05:33;24.80;99.90
7445;DHT22;3764;48.126;11.594;2022-07-29T12:08:15;24.90;99.90
7445;DHT22;3764;48.126;11.594;2022-07-29T12:10:45;24.90;99.90
7445;DHT22;3764;48.126;11.594;2022-07-29T12:13:15;24.90;99.90
7445;DHT22;3764;48.126;11.594;2022-07-29T12:15:42;25.00;99.90
7445;DHT22;3764;48.126;11.594;2022-07-29T12:18:15;25.00;99.90
7445;DHT22;3764;48.126;11.594;2022-07-29T12:20:42;25.00;99.90
7445;DHT22;3764;48.126;11.594;2022-07-29T12:23:10;25.00;99.90
7445;DHT22;3764;48.126;11.594;2022-07-29T12:25:40;25.00;99.90
7445;DHT22;3764;48.126;11.594;2022-07-29T12:28:09;25.00;99.90
7445;DHT22;3764;48.126;11.594;2022-07-29T12:30:43;25.00;99.90
7445;DHT22;3764;48.126;11.594;2022-07-29T12:33:18;25.00;99.90
7445;DHT22;3764;48.126;11.594;2022-07-29T12:35:47;25.00;99.90
7445;DHT22;3764;48.126;11.594;2022-07-29T12:38:16;25.00;99.90
7445;DHT22;3764;48.126;11.594;2022-07-29T12:40:44;25.00;99.90
7445;DHT22;3764;48.126;11.594;2022-07-29T12:43:13;25.00;99.90
7445;DHT22;3764;48.126;11.594;2022-07-29T12:45:43;25.00;99.90
7445;DHT22;3764;48.126;11.594;2022-07-29T12:48:11;25.10;99.90
7445;DHT22;3764;48.126;11.594;2022-07-29T12:50:53;25.10;99.90
7445;DHT22;3764;48.126;11.594;2022-07-29T12:53:21;25.10;99.90
7445;DHT22;3764;48.126;11.594;2022-07-29T12:55:49;25.10;99.90
7445;DHT22;3764;48.126;11.594;2022-07-29T12:58:32;25.10;99.90
7445;DHT22;3764;48.126;11.594;2022-07-29T13:01:06;25.10;99.90
7445;DHT22;3764;48.126;11.594;2022-07-29T13:06:30;25.10;99.90
7445;DHT22;3764;48.126;11.594;2022-07-29T13:09:04;25.10;99.90
7445;DHT22;3764;48.126;11.594;2022-07-29T13:11:32;24.90;99.90
7445;DHT22;3764;48.126;11.594;2022-07-29T13:14:00;25.10;99.90
7445;DHT22;3764;48.126;11.594;2022-07-29T13:16:29;25.00;99.90
7445;DHT22;3764;48.126;11.594;2022-07-29T13:19:09;25.00;99.90
7445;DHT22;3764;48.126;11.594;2022-07-29T13:21:38;25.00;99.90
7445;DHT22;3764;48.126;11.594;2022-07-29T13:24:07;25.00;99.90
7445;DHT22;3764;48.126;11.594;2022-07-29T13:26:36;24.90;99.90
7445;DHT22;3764;48.126;11.594;2022-07-29T13:29:09;25.10;99.90
7445;DHT22;3764;48.126;11.594;2022-07-29T13:31:37;24.80;99.90
7445;DHT22;3764;48.126;11.594;2022-07-29T13:34:05;24.80;99.90
7445;DHT22;3764;48.126;11.594;2022-07-29T13:36:35;24.80;99.90
7445;DHT22;3764;48.126;11.594;2022-07-29T13:39:03;24.80;99.90
7445;DHT22;3764;48.126;11.594;2022-07-29T13:41:30;24.80;99.90
7445;DHT22;3764;48.126;11.594;2022-07-29T13:43:57;24.70;99.90
7445;DHT22;3764;48.126;11.594;2022-07-29T13:46:24;24.70;99.90
7445;DHT22;3764;48.126;11.594;2022-07-29T13:48:53;24.70;99.90
7445;DHT22;3764;48.126;11.594;2022-07-29T13:51:20;24.60;99.90
7445;DHT22;3764;48.126;11.594;2022-07-29T13:53:47;24.60;99.90
7445;DHT22;3764;48.126;11.594;2022-07-29T13:56:14;24.60;99.90
7445;DHT22;3764;48.126;11.594;2022-07-29T13:58:41;24.60;99.90
7445;DHT22;3764;48.126;11.594;2022-07-29T14:01:08;24.60;99.90
7445;DHT22;3764;48.126;11.594;2022-07-29T14:06:15;24.60;99.90
7445;DHT22;3764;48.126;11.594;2022-07-29T14:08:42;24.70;99.90
7445;DHT22;3764;48.126;11.594;2022-07-29T14:11:10;24.70;99.90
7445;DHT22;3764;48.126;11.594;2022-07-29T14:13:37;24.80;99.90
7445;DHT22;3764;48.126;11.594;2022-07-29T14:16:04;24.70;99.90
7445;DHT22;3764;48.126;11.594;2022-07-29T14:18:32;24.70;99.90
7445;DHT22;3764;48.126;11.594;2022-07-29T14:20:59;24.60;99.90
7445;DHT22;3764;48.126;11.594;2022-07-29T14:26:23;24.60;99.90
7445;DHT22;3764;48.126;11.594;2022-07-29T14:28:50;24.40;99.90
7445;DHT22;3764;48.126;11.594;2022-07-29T14:31:18;24.40;99.90
7445;DHT22;3764;48.126;11.594;2022-07-29T14:33:45;24.60;99.90
7445;DHT22;3764;48.126;11.594;2022-07-29T14:36:12;24.60;99.90
7445;DHT22;3764;48.126;11.594;2022-07-29T14:38:40;24.60;99.90
7445;DHT22;3764;48.126;11.594;2022-07-29T14:41:07;24.80;99.90
7445;DHT22;3764;48.126;11.594;2022-07-29T14:43:36;24.70;99.90
7445;DHT22;3764;48.126;11.594;2022-07-29T14:46:03;24.70;99.90
7445;DHT22;3764;48.126;11.594;2022-07-29T14:48:30;24.60;99.90
7445;DHT22;3764;48.126;11.594;2022-07-29T14:50:57;24.60;99.90
7445;DHT22;3764;48.126;11.594;2022-07-29T14:53:24;24.60;99.90
7445;DHT22;3764;48.126;11.594;2022-07-29T14:55:51;24.60;99.90
7445;DHT22;3764;48.126;11.594;2022-07-29T14:58:18;24.60;99.90
7445;DHT22;3764;48.126;11.594;2022-07-29T15:00:49;24.60;99.90
7445;DHT22;3764;48.126;11.594;2022-07-29T15:03:16;24.50;99.90
7445;DHT22;3764;48.126;11.594;2022-07-29T15:05:43;24.50;99.90
7445;DHT22;3764;48.126;11.594;2022-07-29T15:08:10;24.50;99.90
7445;DHT22;3764;48.126;11.594;2022-07-29T15:10:39;24.50;99.90
7445;DHT22;3764;48.126;11.594;2022-07-29T15:13:06;24.40;99.90
7445;DHT22;3764;48.126;11.594;2022-07-29T15:15:33;24.40;99.90
7445;DHT22;3764;48.126;11.594;2022-07-29T15:18:02;24.40;99.90
7445;DHT22;3764;48.126;11.594;2022-07-29T15:20:29;24.40;99.90
7445;DHT22;3764;48.126;11.594;2022-07-29T15:22:57;24.40;99.90
7445;DHT22;3764;48.126;11.594;2022-07-29T15:25:25;24.30;99.90
7445;DHT22;3764;48.126;11.594;2022-07-29T15:27:52;24.30;99.90
7445;DHT22;3764;48.126;11.594;2022-07-29T15:30:19;24.30;99.90
7445;DHT22;3764;48.126;11.594;2022-07-29T15:32:46;24.30;99.90
7445;DHT22;3764;48.126;11.594;2022-07-29T15:35:15;24.30;99.90
7445;DHT22;3764;48.126;11.594;2022-07-29T15:37:42;24.30;99.90
7445;DHT22;3764;48.126;11.594;2022-07-29T15:40:10;24.30;99.90
7445;DHT22;3764;48.126;11.594;2022-07-29T15:42:37;24.30;99.90
7445;DHT22;3764;48.126;11.594;2022-07-29T15:45:05;24.30;99.90
7445;DHT22;3764;48.126;11.594;2022-07-29T15:47:34;24.30;99.90
7445;DHT22;3764;48.126;11.594;2022-07-29T15:50:02;24.30;99.90
7445;DHT22;3764;48.126;11.594;2022-07-29T15:52:30;24.30;99.90
7445;DHT22;3764;48.126;11.594;2022-07-29T15:54:57;24.20;99.90
7445;DHT22;3764;48.126;11.594;2022-07-29T15:57:25;24.20;99.90
7445;DHT22;3764;48.126;11.594;2022-07-29T15:59:52;24.20;99.90
7445;DHT22;3764;48.126;11.594;2022-07-29T16:02:19;24.20;99.90
7445;DHT22;3764;48.126;11.594;2022-07-29T16:04:46;24.10;99.90
7445;DHT22;3764;48.126;11.594;2022-07-29T16:07:14;24.00;99.90
7445;DHT22;3764;48.126;11.594;2022-07-29T16:09:42;24.00;99.90
7445;DHT22;3764;48.126;11.594;2022-07-29T16:12:10;24.00;99.90